Time;durP1;ratioP1;P1;durP2;ratioP2;P2;SDS_P1;SDS_P2;PMS_P1;PMS_P2;Temp;Humidity;BMP_temperature;BMP_pressure;BME280_temperature;BME280_humidity;BME280_pressure;Samples;Min_cycle;Max_cycle;Signal;HPM_P1;HPM_P2
2023/10/24 00:00:38;;;;;;;21.65;14.52;;;11.00;99.90;;;;;;5034310;28;20184;-58
2023/10/24 00:03:03;;;;;;;20.35;14.50;;;11.00;99.90;;;;;;5034714;28;20227;-57
2023/10/24 00:05:30;;;;;;;21.67;12.90;;;11.00;99.90;;;;;;5034702;28;20207;-59
2023/10/24 00:07:56;;;;;;;20.83;15.02;;;11.00;99.90;;;;;;5016880;28;20203;-56
2023/10/24 00:10:23;;;;;;;26.70;15.27;;;11.00;99.90;;;;;;5035051;28;20223;-58
2023/10/24 00:12:50;;;;;;;21.50;15.20;;;11.00;99.90;;;;;;5034736;28;20176;-55
2023/10/24 00:15:16;;;;;;;21.88;14.00;;;11.00;99.90;;;;;;5016550;28;20180;-58
2023/10/24 00:17:42;;;;;;;21.40;14.77;;;11.00;99.90;;;;;;5034380;28;20176;-57
2023/10/24 00:20:09;;;;;;;26.35;15.35;;;11.00;99.90;;;;;;5033988;28;20184;-59
2023/10/24 00:22:35;;;;;;;22.67;14.63;;;11.00;99.90;;;;;;5034594;28;20617;-57
2023/10/24 00:25:01;;;;;;;20.40;14.82;;;11.00;99.90;;;;;;5034295;28;20568;-58
2023/10/24 00:27:27;;;;;;;21.30;14.77;;;11.00;99.90;;;;;;5034294;28;20195;-59
2023/10/24 00:29:53;;;;;;;23.40;14.98;;;11.00;99.90;;;;;;5033935;28;20180;-55
2023/10/24 00:32:19;;;;;;;21.70;14.85;;;11.00;99.90;;;;;;5016485;28;20238;-59
2023/10/24 00:34:45;;;;;;;20.65;14.77;;;11.00;99.90;;;;;;5016231;28;20183;-58
2023/10/24 00:37:11;;;;;;;27.10;14.95;;;11.10;99.90;;;;;;5033572;28;20183;-51
2023/10/24 00:39:37;;;;;;;24.83;14.23;;;11.00;99.90;;;;;;5033524;28;20303;-56
2023/10/24 00:42:05;;;;;;;24.73;15.23;;;11.10;99.90;;;;;;5033719;28;20184;-55
2023/10/24 00:44:32;;;;;;;20.05;13.27;;;11.00;99.90;;;;;;5034254;28;20188;-57
2023/10/24 00:47:00;;;;;;;22.13;15.02;;;11.10;99.90;;;;;;5016210;28;20179;-60
2023/10/24 00:49:26;;;;;;;21.90;14.82;;;11.00;99.90;;;;;;5016115;28;20194;-55
2023/10/24 00:51:55;;;;;;;24.73;14.88;;;11.00;99.90;;;;;;5015195;28;20227;-56
2023/10/24 00:54:21;;;;;;;22.38;15.88;;;11.00;99.90;;;;;;4999739;28;20556;-53
2023/10/24 00:56:49;;;;;;;25.85;13.52;;;11.00;99.90;;;;;;5033486;28;20262;-58
2023/10/24 00:59:16;;;;;;;24.40;15.32;;;11.00;99.90;;;;;;5016399;28;20184;-59
2023/10/24 01:01:43;;;;;;;23.58;14.85;;;11.00;99.90;;;;;;5016155;28;20192;-54
2023/10/24 01:04:09;;;;;;;25.65;15.27;;;11.00;99.90;;;;;;5034005;28;20650;-59
2023/10/24 01:06:35;;;;;;;21.77;13.48;;;11.00;99.90;;;;;;5016065;28;20518;-59
2023/10/24 01:09:01;;;;;;;22.48;15.25;;;11.00;99.90;;;;;;5015302;28;20199;-55
2023/10/24 01:11:28;;;;;;;28.08;16.45;;;11.00;99.90;;;;;;5033573;28;20239;-58
2023/10/24 01:13:56;;;;;;;23.65;14.68;;;11.00;99.90;;;;;;5033850;28;20195;-60
2023/10/24 01:16:22;;;;;;;23.98;15.77;;;10.90;99.90;;;;;;5015951;28;20184;-54
2023/10/24 01:18:47;;;;;;;23.10;14.85;;;10.90;99.90;;;;;;5015722;28;20199;-57
2023/10/24 01:21:13;;;;;;;25.83;15.68;;;10.90;99.90;;;;;;5033331;28;20222;-56
2023/10/24 01:23:40;;;;;;;22.30;15.57;;;10.90;99.90;;;;;;5033450;28;20195;-58
2023/10/24 01:26:07;;;;;;;26.45;16.33;;;10.90;99.90;;;;;;5032895;28;20197;-59
2023/10/24 01:28:33;;;;;;;23.60;15.40;;;10.90;99.90;;;;;;4999199;28;20180;-57
2023/10/24 01:30:59;;;;;;;21.15;15.82;;;10.90;99.90;;;;;;5032585;28;20230;-58
2023/10/24 01:33:25;;;;;;;25.58;15.90;;;10.90;99.90;;;;;;5033416;28;20176;-60
2023/10/24 01:35:51;;;;;;;23.60;15.48;;;10.90;99.90;;;;;;5015258;28;20255;-55
2023/10/24 01:38:18;;;;;;;25.55;16.00;;;10.90;99.90;;;;;;5014860;28;20176;-57
2023/10/24 01:40:44;;;;;;;27.42;17.30;;;10.90;99.90;;;;;;5015055;28;20184;-58
2023/10/24 01:43:10;;;;;;;26.75;17.50;;;10.90;99.90;;;;;;5032695;28;20180;-59
2023/10/24 01:45:36;;;;;;;26.88;16.42;;;10.90;99.90;;;;;;5015082;28;20180;-59
2023/10/24 01:48:02;;;;;;;28.50;17.50;;;10.90;99.90;;;;;;4998422;28;20191;-58
2023/10/24 01:50:28;;;;;;;28.58;18.02;;;10.90;99.90;;;;;;5030913;28;20220;-56
2023/10/24 01:52:54;;;;;;;25.42;17.17;;;10.90;99.90;;;;;;5032786;28;20187;-57
2023/10/24 01:55:20;;;;;;;24.67;17.95;;;10.90;99.90;;;;;;5015356;28;20202;-53
2023/10/24 01:57:46;;;;;;;25.13;18.35;;;10.90;99.90;;;;;;5032186;28;20530;-55
2023/10/24 02:00:13;;;;;;;30.80;19.35;;;10.90;99.90;;;;;;5032147;28;20616;-60
2023/10/24 02:02:39;;;;;;;30.95;17.98;;;10.80;99.90;;;;;;5032072;28;20264;-55
2023/10/24 02:05:05;;;;;;;30.63;19.55;;;10.90;99.90;;;;;;5032414;28;20187;-59
2023/10/24 02:07:31;;;;;;;29.25;19.15;;;10.90;99.90;;;;;;5014607;28;20179;-52
2023/10/24 02:09:57;;;;;;;33.10;19.08;;;10.90;99.90;;;;;;5032180;28;20666;-57
2023/10/24 02:12:24;;;;;;;33.85;20.48;;;10.90;99.90;;;;;;5014621;28;20250;-57
2023/10/24 02:14:51;;;;;;;30.88;19.50;;;10.80;99.90;;;;;;5032665;28;20187;-56
2023/10/24 02:17:17;;;;;;;32.58;19.25;;;10.80;99.90;;;;;;5014613;28;20274;-55
2023/10/24 02:19:43;;;;;;;32.25;20.55;;;10.90;99.90;;;;;;5031057;28;20207;-59
2023/10/24 02:22:09;;;;;;;31.48;20.13;;;10.90;99.90;;;;;;5032068;28;20180;-60
2023/10/24 02:24:36;;;;;;;33.25;20.45;;;10.80;99.90;;;;;;5014514;28;20541;-57
2023/10/24 02:27:01;;;;;;;34.38;21.33;;;10.90;99.90;;;;;;5014618;28;20180;-57
2023/10/24 02:29:27;;;;;;;29.58;18.85;;;10.90;99.90;;;;;;5032015;28;20194;-55
2023/10/24 02:31:53;;;;;;;32.45;21.50;;;10.90;99.90;;;;;;5031497;28;20762;-58
2023/10/24 02:34:21;;;;;;;31.92;20.50;;;10.90;99.90;;;;;;5014329;28;20184;-57
2023/10/24 02:36:47;;;;;;;36.05;21.25;;;10.90;99.90;;;;;;4997745;28;20274;-55
2023/10/24 02:39:13;;;;;;;33.08;21.52;;;10.90;99.90;;;;;;5014019;28;20208;-56
2023/10/24 02:41:39;;;;;;;34.30;20.80;;;10.80;99.90;;;;;;5014172;28;20214;-58
2023/10/24 02:44:05;;;;;;;35.10;20.65;;;10.90;99.90;;;;;;5014508;28;20188;-61
2023/10/24 02:46:31;;;;;;;32.58;21.98;;;10.90;99.90;;;;;;5031753;28;20172;-58
2023/10/24 02:48:57;;;;;;;33.97;20.73;;;10.90;99.90;;;;;;5031421;28;20271;-55
2023/10/24 02:51:23;;;;;;;32.08;20.98;;;10.90;99.90;;;;;;5031641;28;20203;-57
2023/10/24 02:53:49;;;;;;;35.25;22.30;;;10.90;99.90;;;;;;5014208;28;20271;-58
2023/10/24 02:56:15;;;;;;;34.25;21.77;;;10.90;99.90;;;;;;5014151;28;20230;-51
2023/10/24 02:58:42;;;;;;;39.05;23.15;;;10.90;99.90;;;;;;5031398;28;20266;-59
2023/10/24 03:01:09;;;;;;;37.85;23.50;;;10.90;99.90;;;;;;5032169;28;20244;-58
2023/10/24 03:03:35;;;;;;;42.97;23.02;;;10.90;99.90;;;;;;5031334;28;20692;-57
2023/10/24 03:06:01;;;;;;;37.17;23.50;;;10.90;99.90;;;;;;5013984;28;20184;-54
2023/10/24 03:08:27;;;;;;;38.20;22.95;;;10.90;99.90;;;;;;5030420;28;20238;-55
2023/10/24 03:10:53;;;;;;;37.47;22.42;;;11.00;99.90;;;;;;5031217;28;20234;-54
2023/10/24 03:13:19;;;;;;;39.03;23.90;;;11.00;99.90;;;;;;5031761;28;20267;-57
2023/10/24 03:15:45;;;;;;;34.78;22.73;;;11.00;99.90;;;;;;5017645;28;20176;-54
2023/10/24 03:18:11;;;;;;;40.53;23.73;;;11.00;99.90;;;;;;5035001;28;20180;-54
2023/10/24 03:20:41;;;;;;;40.72;24.10;;;11.00;99.90;;;;;;5017423;28;20191;-53
2023/10/24 03:23:09;;;;;;;39.60;23.77;;;11.00;99.90;;;;;;5017157;28;20274;-54
2023/10/24 03:25:35;;;;;;;35.75;22.30;;;11.00;99.90;;;;;;5017469;28;20172;-57
2023/10/24 03:28:00;;;;;;;38.55;21.40;;;11.00;99.90;;;;;;5035394;28;20188;-53
2023/10/24 03:30:27;;;;;;;35.38;21.35;;;11.00;99.90;;;;;;5035205;28;20243;-55
2023/10/24 03:32:53;;;;;;;39.17;22.30;;;11.10;99.90;;;;;;5035107;28;20285;-58
2023/10/24 03:35:19;;;;;;;32.63;19.60;;;11.10;99.90;;;;;;5035040;28;20186;-55
2023/10/24 03:37:45;;;;;;;37.03;22.35;;;11.10;99.90;;;;;;5017594;28;20585;-55
2023/10/24 03:40:11;;;;;;;33.72;22.00;;;11.10;99.90;;;;;;5035007;28;20176;-58
2023/10/24 03:42:37;;;;;;;30.73;18.63;;;11.10;99.90;;;;;;5034765;28;20536;-55
2023/10/24 03:45:03;;;;;;;30.83;19.33;;;11.20;99.90;;;;;;5034755;28;20246;-56
2023/10/24 03:47:30;;;;;;;34.67;21.80;;;11.20;99.90;;;;;;5034559;28;20248;-57
2023/10/24 03:49:56;;;;;;;35.00;22.13;;;11.20;99.90;;;;;;5034317;28;20267;-57
2023/10/24 03:52:22;;;;;;;31.10;20.33;;;11.30;99.90;;;;;;5034286;28;20271;-53
2023/10/24 03:54:48;;;;;;;35.80;20.77;;;11.30;99.90;;;;;;5034854;28;20177;-54
2023/10/24 03:57:14;;;;;;;33.28;21.55;;;11.30;99.90;;;;;;5034239;28;20180;-59
2023/10/24 03:59:40;;;;;;;32.30;21.63;;;11.30;99.90;;;;;;5034553;28;20180;-58
2023/10/24 04:02:06;;;;;;;31.77;21.27;;;11.30;99.90;;;;;;5034292;28;20180;-56
2023/10/24 04:04:32;;;;;;;31.63;21.65;;;11.30;99.90;;;;;;5016794;28;20171;-56
2023/10/24 04:06:57;;;;;;;34.67;22.30;;;11.30;99.90;;;;;;5034240;28;20188;-58
2023/10/24 04:09:23;;;;;;;35.28;23.15;;;11.40;99.90;;;;;;5034007;28;20554;-57
2023/10/24 04:11:49;;;;;;;35.70;22.83;;;11.40;99.90;;;;;;5034287;28;20281;-56
2023/10/24 04:14:15;;;;;;;33.05;22.10;;;11.40;99.90;;;;;;5033640;28;20176;-57
2023/10/24 04:16:41;;;;;;;36.30;22.60;;;11.40;99.90;;;;;;5034001;28;20217;-56
2023/10/24 04:19:07;;;;;;;36.03;23.30;;;11.40;99.90;;;;;;5033679;28;20353;-54
2023/10/24 04:21:33;;;;;;;36.50;23.13;;;11.40;99.90;;;;;;5033929;28;20306;-56
2023/10/24 04:23:59;;;;;;;35.53;23.83;;;11.40;99.90;;;;;;5034119;28;20604;-59
2023/10/24 04:26:25;;;;;;;36.90;23.30;;;11.50;99.90;;;;;;5016815;28;20180;-54
2023/10/24 04:28:51;;;;;;;39.88;23.58;;;11.50;99.90;;;;;;5034540;28;20617;-59
2023/10/24 04:31:17;;;;;;;37.65;23.63;;;11.50;99.90;;;;;;5033860;28;20597;-61
2023/10/24 04:33:44;;;;;;;35.22;23.15;;;11.50;99.90;;;;;;5016208;28;20176;-56
2023/10/24 04:36:13;;;;;;;35.90;23.58;;;11.60;99.90;;;;;;5033563;28;20207;-58
2023/10/24 04:38:39;;;;;;;38.08;24.25;;;11.60;99.90;;;;;;5033646;28;20227;-56
2023/10/24 04:41:05;;;;;;;40.83;24.15;;;11.60;99.90;;;;;;5033060;28;20628;-56
2023/10/24 04:43:31;;;;;;;41.03;24.85;;;11.60;99.90;;;;;;5015947;28;20184;-56
2023/10/24 04:45:57;;;;;;;38.83;24.67;;;11.70;99.90;;;;;;5033318;28;20233;-59
2023/10/24 04:48:23;;;;;;;38.20;25.05;;;11.60;99.90;;;;;;5015751;28;20180;-61
2023/10/24 04:50:49;;;;;;;38.30;24.10;;;11.70;99.90;;;;;;5033221;28;20216;-59
2023/10/24 04:53:15;;;;;;;41.83;24.95;;;11.70;99.90;;;;;;5031882;28;20178;-54
2023/10/24 04:55:42;;;;;;;39.70;24.45;;;11.70;99.90;;;;;;5033156;28;20184;-56
2023/10/24 04:58:08;;;;;;;36.42;23.75;;;11.70;99.90;;;;;;5015777;28;20190;-59
2023/10/24 05:00:34;;;;;;;36.28;23.10;;;11.80;99.90;;;;;;5033083;28;20263;-58
2023/10/24 05:03:00;;;;;;;37.95;24.10;;;11.80;99.90;;;;;;5032798;28;20241;-56
2023/10/24 05:05:27;;;;;;;39.60;26.13;;;11.80;99.90;;;;;;5033176;28;20640;-55
2023/10/24 05:07:53;;;;;;;36.65;24.67;;;11.80;99.90;;;;;;5032021;28;20198;-58
2023/10/24 05:10:20;;;;;;;36.13;23.70;;;11.80;99.90;;;;;;5032903;28;20287;-55
2023/10/24 05:12:46;;;;;;;35.40;23.38;;;11.80;99.90;;;;;;5033189;28;20191;-57
2023/10/24 05:15:12;;;;;;;41.30;24.67;;;11.80;99.90;;;;;;5015331;28;20479;-54
2023/10/24 05:17:38;;;;;;;38.83;25.40;;;11.90;99.90;;;;;;5033175;28;20195;-57
2023/10/24 05:20:07;;;;;;;40.47;25.40;;;11.80;99.90;;;;;;5033476;28;20663;-57
2023/10/24 05:22:34;;;;;;;39.67;25.58;;;11.90;99.90;;;;;;5032476;28;20172;-58
2023/10/24 05:25:00;;;;;;;35.30;24.98;;;11.90;99.90;;;;;;5032406;28;20198;-55
2023/10/24 05:27:26;;;;;;;37.88;24.65;;;11.90;99.90;;;;;;5032520;28;20636;-59
2023/10/24 05:29:52;;;;;;;38.92;25.33;;;11.90;99.90;;;;;;5033042;28;20664;-58
2023/10/24 05:32:18;;;;;;;37.05;24.70;;;11.90;99.90;;;;;;5032196;28;20223;-56
2023/10/24 05:34:44;;;;;;;32.90;24.58;;;12.00;99.90;;;;;;5015416;28;20520;-54
2023/10/24 05:37:10;;;;;;;35.33;23.98;;;12.00;99.90;;;;;;5032138;28;20275;-53
2023/10/24 05:39:36;;;;;;;34.08;23.00;;;12.00;99.90;;;;;;5015147;28;20218;-57
2023/10/24 05:42:02;;;;;;;32.35;24.23;;;12.00;99.90;;;;;;5032326;28;20199;-52
2023/10/24 05:44:28;;;;;;;32.58;23.90;;;12.10;99.90;;;;;;5032451;28;20171;-58
2023/10/24 05:46:54;;;;;;;33.80;24.10;;;12.10;99.90;;;;;;5032922;28;20192;-58
2023/10/24 05:49:21;;;;;;;34.90;24.27;;;12.10;99.90;;;;;;5031247;28;20180;-58
2023/10/24 05:51:47;;;;;;;33.95;24.42;;;12.10;99.90;;;;;;5032838;28;20212;-57
2023/10/24 05:54:13;;;;;;;36.25;25.55;;;12.10;99.90;;;;;;5014756;28;20238;-57
2023/10/24 05:56:39;;;;;;;38.42;26.15;;;12.10;99.90;;;;;;4998462;28;20179;-58
2023/10/24 05:59:05;;;;;;;34.67;24.80;;;12.10;99.90;;;;;;5031075;28;20267;-58
2023/10/24 06:01:31;;;;;;;36.38;24.83;;;12.10;99.90;;;;;;5014820;28;20211;-59
2023/10/24 06:03:57;;;;;;;34.47;24.50;;;12.10;99.90;;;;;;5032382;28;20688;-59
2023/10/24 06:06:23;;;;;;;36.60;25.42;;;12.10;99.90;;;;;;5032735;28;20183;-54
2023/10/24 06:08:49;;;;;;;34.53;23.80;;;12.10;99.90;;;;;;5014855;28;20186;-57
2023/10/24 06:11:16;;;;;;;36.63;25.35;;;12.10;99.90;;;;;;5032369;28;20227;-57
2023/10/24 06:13:42;;;;;;;33.85;23.85;;;12.20;99.90;;;;;;5032341;28;20187;-59
2023/10/24 06:16:13;;;;;;;32.65;25.65;;;12.10;99.90;;;;;;5032087;28;20184;-59
2023/10/24 06:18:40;;;;;;;36.58;24.65;;;12.20;99.90;;;;;;5032086;28;20206;-57
2023/10/24 06:21:06;;;;;;;36.45;24.55;;;12.20;99.90;;;;;;5014270;28;20238;-56
2023/10/24 06:23:33;;;;;;;37.30;23.90;;;12.20;99.90;;;;;;5031610;28;20270;-59
2023/10/24 06:26:00;;;;;;;34.65;24.58;;;12.20;99.90;;;;;;5032782;28;20646;-58
2023/10/24 06:28:26;;;;;;;30.10;22.98;;;12.20;99.90;;;;;;5014479;28;20667;-64
2023/10/24 06:31:04;;;;;;;34.58;24.85;;;12.20;99.90;;;;;;5031575;28;20213;-57
2023/10/24 06:33:31;;;;;;;32.85;22.52;;;12.20;99.90;;;;;;5032002;28;20176;-60
2023/10/24 06:35:58;;;;;;;31.10;22.33;;;12.20;99.90;;;;;;5031571;28;20183;-62
2023/10/24 06:38:24;;;;;;;32.45;22.83;;;12.20;99.90;;;;;;5031132;28;20176;-66
2023/10/24 06:40:50;;;;;;;31.40;22.35;;;12.20;99.90;;;;;;5013971;28;20183;-60
2023/10/24 06:43:18;;;;;;;31.67;22.63;;;12.30;99.90;;;;;;5031395;28;20652;-57
2023/10/24 06:45:45;;;;;;;29.92;21.73;;;12.30;99.90;;;;;;5031988;28;20195;-59
2023/10/24 06:48:12;;;;;;;30.42;22.33;;;12.30;99.90;;;;;;5031673;28;20203;-58
2023/10/24 06:50:39;;;;;;;28.63;21.75;;;12.30;99.90;;;;;;5017915;28;20215;-61
2023/10/24 06:53:06;;;;;;;30.98;20.92;;;12.30;99.90;;;;;;5034132;28;20229;-64
2023/10/24 06:55:32;;;;;;;26.35;20.02;;;12.30;99.90;;;;;;5036101;28;20187;-59
2023/10/24 06:57:59;;;;;;;26.35;19.40;;;12.30;99.90;;;;;;5036164;28;20518;-57
2023/10/24 07:00:26;;;;;;;26.63;19.65;;;12.40;99.90;;;;;;5017765;28;20278;-58
2023/10/24 07:02:52;;;;;;;27.70;18.08;;;12.40;99.90;;;;;;5017392;28;20234;-58
2023/10/24 07:05:19;;;;;;;23.23;17.17;;;12.40;99.90;;;;;;5016812;28;20196;-58
2023/10/24 07:07:45;;;;;;;21.13;16.77;;;12.40;99.90;;;;;;5034176;28;20180;-59
2023/10/24 07:10:11;;;;;;;23.55;16.30;;;12.40;99.90;;;;;;5016537;28;20186;-56
2023/10/24 07:12:38;;;;;;;24.38;16.77;;;12.40;99.90;;;;;;5034223;28;20176;-60
2023/10/24 07:15:04;;;;;;;22.23;16.50;;;12.40;99.90;;;;;;5034439;28;20243;-56
2023/10/24 07:17:32;;;;;;;20.23;16.25;;;12.40;99.90;;;;;;5034029;28;20184;-60
2023/10/24 07:20:01;;;;;;;23.80;16.85;;;12.40;99.90;;;;;;5033814;28;20183;-55
2023/10/24 07:22:28;;;;;;;23.83;16.65;;;12.40;99.90;;;;;;5016243;28;20187;-55
2023/10/24 07:24:54;;;;;;;26.38;17.52;;;12.40;99.90;;;;;;5033965;28;20188;-53
2023/10/24 07:27:21;;;;;;;25.65;18.70;;;12.50;99.90;;;;;;5016157;28;20180;-54
2023/10/24 07:29:47;;;;;;;23.52;16.35;;;12.50;99.90;;;;;;5016255;28;20184;-58
2023/10/24 07:32:14;;;;;;;22.45;16.52;;;12.50;99.90;;;;;;5033951;28;20211;-59
2023/10/24 07:34:43;;;;;;;20.85;16.33;;;12.50;99.90;;;;;;5033837;28;20689;-59
2023/10/24 07:37:09;;;;;;;23.45;16.45;;;12.50;99.90;;;;;;5033523;28;20655;-57
2023/10/24 07:39:37;;;;;;;24.25;16.48;;;12.60;99.90;;;;;;5015879;28;20229;-59
2023/10/24 07:42:03;;;;;;;20.77;16.85;;;12.60;99.90;;;;;;5033575;28;20180;-59
2023/10/24 07:44:29;;;;;;;23.35;15.85;;;12.60;99.90;;;;;;5033946;28;20211;-58
2023/10/24 07:46:55;;;;;;;22.75;16.20;;;12.60;99.90;;;;;;5033679;28;20592;-57
2023/10/24 07:49:21;;;;;;;24.00;16.98;;;12.60;99.90;;;;;;5033948;28;20633;-55
2023/10/24 07:51:47;;;;;;;21.63;16.67;;;12.60;99.90;;;;;;5032124;28;20212;-64
2023/10/24 07:54:13;;;;;;;24.92;16.50;;;12.60;99.90;;;;;;5033544;28;20198;-60
2023/10/24 07:56:40;;;;;;;20.13;14.48;;;12.70;99.90;;;;;;5033034;28;20192;-58
2023/10/24 07:59:07;;;;;;;19.15;14.75;;;12.70;99.90;;;;;;4999482;28;20644;-57
2023/10/24 08:01:34;;;;;;;22.58;14.05;;;12.70;99.90;;;;;;5033213;28;20180;-58
2023/10/24 08:04:00;;;;;;;20.15;14.63;;;12.70;99.90;;;;;;4977312;28;1114860;-54
2023/10/24 08:06:26;;;;;;;18.92;13.95;;;12.70;99.90;;;;;;5034652;28;20267;-57
2023/10/24 08:08:52;;;;;;;19.52;13.70;;;12.70;99.90;;;;;;5034442;28;20280;-56
2023/10/24 08:11:18;;;;;;;15.75;12.88;;;12.70;99.90;;;;;;5033946;28;20211;-60
2023/10/24 08:13:44;;;;;;;17.45;12.55;;;12.70;99.90;;;;;;5034043;28;20589;-57
2023/10/24 08:16:10;;;;;;;18.50;13.32;;;12.80;99.90;;;;;;5033802;28;20226;-56
2023/10/24 08:18:38;;;;;;;20.95;13.30;;;12.80;99.90;;;;;;5034136;28;20606;-60
2023/10/24 08:21:04;;;;;;;19.75;14.50;;;12.80;99.90;;;;;;5016502;28;20187;-59
2023/10/24 08:23:31;;;;;;;16.70;12.90;;;12.80;99.90;;;;;;5033932;28;20192;-58
2023/10/24 08:25:57;;;;;;;17.30;13.18;;;12.80;99.90;;;;;;5034184;28;20203;-58
2023/10/24 08:28:23;;;;;;;21.15;13.25;;;12.80;99.90;;;;;;5000064;28;20176;-59
2023/10/24 08:30:50;;;;;;;19.83;13.32;;;12.80;99.90;;;;;;5015963;28;20215;-58
2023/10/24 08:33:17;;;;;;;19.65;13.43;;;12.80;99.90;;;;;;5033860;28;20187;-57
2023/10/24 08:35:44;;;;;;;17.77;12.57;;;12.80;99.90;;;;;;5034494;28;20242;-56
2023/10/24 08:38:11;;;;;;;17.85;12.90;;;12.80;99.90;;;;;;5033660;28;20192;-57
2023/10/24 08:40:39;;;;;;;16.65;12.93;;;12.80;99.90;;;;;;5034107;28;20183;-54
2023/10/24 08:43:05;;;;;;;20.02;13.73;;;12.80;99.90;;;;;;5033569;28;20172;-53
2023/10/24 08:45:31;;;;;;;17.02;12.80;;;12.80;99.90;;;;;;5033560;28;20183;-58
2023/10/24 08:47:59;;;;;;;18.95;13.75;;;12.80;99.90;;;;;;5033917;28;20188;-53
2023/10/24 08:50:25;;;;;;;21.33;13.35;;;12.90;99.90;;;;;;4983664;28;20216;-55
2023/10/24 08:52:52;;;;;;;17.33;13.15;;;12.90;99.90;;;;;;5033422;28;20211;-54
2023/10/24 08:55:19;;;;;;;20.35;14.23;;;12.90;99.90;;;;;;5033116;28;20260;-55
2023/10/24 08:57:46;;;;;;;18.88;14.00;;;12.90;99.90;;;;;;5033273;28;20243;-53
2023/10/24 09:00:14;;;;;;;20.83;13.85;;;12.90;99.90;;;;;;5033188;28;20180;-55
2023/10/24 09:02:44;;;;;;;19.88;13.65;;;12.90;99.90;;;;;;5033213;28;20194;-52
2023/10/24 09:05:11;;;;;;;18.73;13.43;;;12.90;99.90;;;;;;5033052;28;20164;-55
2023/10/24 09:07:37;;;;;;;21.33;14.52;;;12.90;99.90;;;;;;5032864;28;20184;-57
2023/10/24 09:10:03;;;;;;;17.52;13.20;;;13.00;99.90;;;;;;5031386;28;20630;-57
2023/10/24 09:12:31;;;;;;;19.20;13.35;;;13.00;99.90;;;;;;5014919;28;20724;-57
2023/10/24 09:14:58;;;;;;;16.67;13.00;;;13.00;99.90;;;;;;5033167;28;20190;-52
2023/10/24 09:17:24;;;;;;;24.10;14.13;;;13.00;99.90;;;;;;5032959;28;20172;-54
2023/10/24 09:19:59;;;;;;;21.52;14.18;;;13.00;99.90;;;;;;5033448;28;20180;-54
2023/10/24 09:22:30;;;;;;;19.85;14.40;;;13.00;99.90;;;;;;5033088;28;20233;-54
2023/10/24 09:24:58;;;;;;;20.70;13.73;;;13.00;99.90;;;;;;5015070;28;20168;-54
2023/10/24 09:27:24;;;;;;;19.88;14.45;;;13.00;99.90;;;;;;5014949;28;20187;-56
2023/10/24 09:29:50;;;;;;;20.60;14.30;;;13.00;99.90;;;;;;5033241;28;20207;-55
2023/10/24 09:32:17;;;;;;;24.40;14.75;;;13.00;99.90;;;;;;5032628;28;20672;-54
2023/10/24 09:34:45;;;;;;;20.67;14.35;;;13.00;99.90;;;;;;5032396;28;20211;-54
2023/10/24 09:37:13;;;;;;;18.17;14.15;;;13.00;99.90;;;;;;5032921;28;20270;-54
2023/10/24 09:39:56;;;;;;;20.77;14.93;;;13.00;99.90;;;;;;5032671;28;20274;-57
2023/10/24 09:42:27;;;;;;;21.60;14.48;;;13.00;99.90;;;;;;5032826;28;20188;-55
2023/10/24 09:44:55;;;;;;;20.45;15.20;;;13.00;99.90;;;;;;5032115;28;20217;-54
2023/10/24 09:47:22;;;;;;;20.80;14.95;;;13.00;99.90;;;;;;5031999;28;20188;-57
2023/10/24 09:49:55;;;;;;;22.17;15.05;;;13.00;99.90;;;;;;5031735;28;20184;-56
2023/10/24 09:52:24;;;;;;;21.10;15.02;;;13.00;99.90;;;;;;5014761;28;20211;-55
2023/10/24 09:54:50;;;;;;;25.23;15.02;;;13.00;99.90;;;;;;5014651;28;20209;-59
2023/10/24 09:57:19;;;;;;;18.73;13.68;;;13.00;99.90;;;;;;5032013;28;20194;-56
2023/10/24 09:59:54;;;;;;;19.92;14.88;;;13.00;99.90;;;;;;5032358;28;20278;-51
2023/10/24 10:02:23;;;;;;;21.80;14.52;;;13.00;99.90;;;;;;5032053;28;20549;-53
2023/10/24 10:04:50;;;;;;;20.13;14.25;;;13.00;99.90;;;;;;5031764;28;20402;-56
2023/10/24 10:07:17;;;;;;;19.35;13.73;;;13.00;99.90;;;;;;5032060;28;20184;-55
2023/10/24 10:09:47;;;;;;;21.45;14.10;;;13.00;99.90;;;;;;5031794;28;20230;-58
2023/10/24 10:12:17;;;;;;;19.10;13.77;;;13.00;99.90;;;;;;5014236;28;20261;-57
2023/10/24 10:15:01;;;;;;;20.48;14.13;;;13.00;99.90;;;;;;5014421;28;20172;-56
2023/10/24 10:17:44;;;;;;;18.15;13.90;;;13.00;99.90;;;;;;5032020;28;20553;-54
2023/10/24 10:20:19;;;;;;;21.02;14.52;;;13.00;99.90;;;;;;5014574;28;20161;-53
2023/10/24 10:23:08;;;;;;;21.08;14.32;;;13.00;99.90;;;;;;5031824;28;20198;-52
2023/10/24 10:26:07;;;;;;;19.08;14.35;;;13.00;99.90;;;;;;5003801;28;20231;-53
2023/10/24 10:29:09;;;;;;;16.65;13.57;;;13.00;99.90;;;;;;5013959;28;20180;-53
2023/10/24 10:31:51;;;;;;;17.63;13.52;;;13.00;99.90;;;;;;5015416;28;20223;-60
2023/10/24 10:34:16;;;;;;;18.13;13.82;;;13.00;99.90;;;;;;5031534;28;20202;-57
2023/10/24 10:36:55;;;;;;;19.67;14.55;;;12.90;99.90;;;;;;5031571;28;20234;-58
2023/10/24 10:39:21;;;;;;;19.75;14.18;;;12.90;99.90;;;;;;5031615;28;20560;-57
2023/10/24 10:41:47;;;;;;;21.65;15.45;;;12.90;99.90;;;;;;5031671;28;20176;-58
2023/10/24 10:44:38;;;;;;;19.75;13.98;;;12.90;99.90;;;;;;5031926;28;20180;-54
2023/10/24 10:47:05;;;;;;;18.38;14.15;;;13.00;99.90;;;;;;5031246;28;20203;-53
2023/10/24 10:49:59;;;;;;;21.67;14.40;;;13.00;99.90;;;;;;5031605;28;20192;-57
2023/10/24 10:52:45;;;;;;;18.75;14.77;;;13.00;99.90;;;;;;5029803;28;20665;-57
2023/10/24 10:55:29;;;;;;;18.60;13.50;;;13.10;99.90;;;;;;5031708;28;20171;-55
2023/10/24 10:58:23;;;;;;;18.02;13.27;;;13.10;99.90;;;;;;5031624;28;20180;-55
2023/10/24 11:01:03;;;;;;;20.52;14.63;;;13.20;99.90;;;;;;5031752;28;20160;-56
2023/10/24 11:03:41;;;;;;;19.02;12.77;;;13.30;99.90;;;;;;5031354;28;20219;-57
2023/10/24 11:06:17;;;;;;;20.40;13.75;;;13.30;99.90;;;;;;5031024;28;20233;-55
2023/10/24 11:09:04;;;;;;;17.00;13.82;;;13.40;99.90;;;;;;5014053;28;20474;-52
2023/10/24 11:11:30;;;;;;;18.95;14.10;;;13.50;99.90;;;;;;5031234;28;20264;-57
2023/10/24 11:14:16;;;;;;;19.27;13.63;;;13.60;99.90;;;;;;5031341;28;20168;-57
2023/10/24 11:16:43;;;;;;;18.73;14.13;;;13.60;99.90;;;;;;5030046;28;20169;-53
2023/10/24 11:19:22;;;;;;;19.25;13.80;;;13.70;99.90;;;;;;5031500;28;20234;-56
2023/10/24 11:21:51;;;;;;;16.40;12.60;;;13.70;99.90;;;;;;5031392;28;20187;-57
2023/10/24 11:24:22;;;;;;;17.90;12.85;;;13.70;99.90;;;;;;5031332;28;20174;-59
2023/10/24 11:26:55;;;;;;;18.20;13.30;;;13.80;99.90;;;;;;5031342;28;20167;-59
2023/10/24 11:29:21;;;;;;;19.83;14.02;;;13.80;99.90;;;;;;5030707;28;20195;-54
2023/10/24 11:31:48;;;;;;;20.85;13.85;;;13.80;99.90;;;;;;5031057;28;20216;-57
2023/10/24 11:34:14;;;;;;;18.10;13.57;;;13.80;99.90;;;;;;5031332;28;20215;-54
2023/10/24 11:36:41;;;;;;;16.92;13.20;;;13.80;99.90;;;;;;5035021;28;20187;-58
2023/10/24 11:39:08;;;;;;;17.52;13.60;;;13.80;99.90;;;;;;5035087;28;20183;-54
2023/10/24 11:41:35;;;;;;;22.92;13.98;;;13.80;99.90;;;;;;5034921;28;20207;-54
2023/10/24 11:44:01;;;;;;;21.42;13.65;;;13.90;99.90;;;;;;5034687;28;20240;-56
2023/10/24 11:46:27;;;;;;;19.25;13.73;;;13.90;99.90;;;;;;5033335;28;20351;-53
2023/10/24 11:48:54;;;;;;;17.60;12.98;;;13.90;99.90;;;;;;5034692;28;20263;-55
2023/10/24 11:51:20;;;;;;;27.25;19.02;;;13.90;99.90;;;;;;5034142;28;20220;-57
2023/10/24 11:53:46;;;;;;;19.90;13.73;;;13.90;99.90;;;;;;5000514;28;20653;-56
2023/10/24 11:56:12;;;;;;;17.67;12.57;;;13.90;99.90;;;;;;5034178;28;20329;-55
2023/10/24 11:58:42;;;;;;;16.98;13.23;;;13.90;99.90;;;;;;5034560;28;20262;-58
2023/10/24 12:01:08;;;;;;;17.48;13.05;;;13.90;99.90;;;;;;5016462;28;20254;-57
2023/10/24 12:03:48;;;;;;;21.70;17.25;;;14.00;99.90;;;;;;5034670;28;20616;-58
2023/10/24 12:06:18;;;;;;;18.35;13.82;;;13.90;99.90;;;;;;5034008;28;20167;-54
2023/10/24 12:08:44;;;;;;;19.15;13.60;;;13.90;99.90;;;;;;5033741;28;20216;-58
2023/10/24 12:11:10;;;;;;;16.48;13.40;;;13.90;99.90;;;;;;5034231;28;20216;-59
2023/10/24 12:13:36;;;;;;;17.38;13.07;;;13.90;99.90;;;;;;5034447;28;20608;-57
2023/10/24 12:16:02;;;;;;;17.40;13.80;;;13.90;99.90;;;;;;5034453;28;20537;-56
2023/10/24 12:18:29;;;;;;;33.72;22.90;;;13.90;99.90;;;;;;5034535;28;20184;-54
2023/10/24 12:20:55;;;;;;;23.60;15.93;;;13.90;99.90;;;;;;5034056;28;20215;-57
2023/10/24 12:23:23;;;;;;;18.20;13.70;;;13.90;99.90;;;;;;5034315;28;20191;-56
2023/10/24 12:25:50;;;;;;;21.17;15.35;;;13.90;99.90;;;;;;5033778;28;20279;-56
2023/10/24 12:28:16;;;;;;;17.20;13.73;;;13.90;99.90;;;;;;5032702;28;20649;-56